sensor_id;sensor_type;location;lat;lon;timestamp;pressure;altitude;pressure_sealevel;temperature;humidity
51359;BME280;37448;51.588;7.248;2023-09-19T00:00:56;100085.63;;;15.01;94.02
51359;BME280;37448;51.588;7.248;2023-09-19T00:02:57;100089.81;;;15.05;94.84
51359;BME280;37448;51.588;7.248;2023-09-19T00:05:01;100084.88;;;14.99;94.31
51359;BME280;37448;51.588;7.248;2023-09-19T00:07:02;100090.22;;;14.97;95.04
51359;BME280;37448;51.588;7.248;2023-09-19T00:09:03;100092.13;;;14.93;93.60
51359;BME280;37448;51.588;7.248;2023-09-19T00:11:04;100090.72;;;14.86;93.70
51359;BME280;37448;51.588;7.248;2023-09-19T00:13:06;100087.03;;;14.90;94.40
51359;BME280;37448;51.588;7.248;2023-09-19T00:15:07;100094.91;;;14.90;95.11
51359;BME280;37448;51.588;7.248;2023-09-19T00:17:07;100106.66;;;14.83;94.38
51359;BME280;37448;51.588;7.248;2023-09-19T00:19:08;100100.69;;;14.80;93.21
51359;BME280;37448;51.588;7.248;2023-09-19T00:21:09;100103.22;;;14.81;94.67
51359;BME280;37448;51.588;7.248;2023-09-19T00:23:10;100107.84;;;14.76;93.90
51359;BME280;37448;51.588;7.248;2023-09-19T00:25:11;100105.38;;;14.73;93.52
51359;BME280;37448;51.588;7.248;2023-09-19T00:27:12;100114.44;;;14.66;92.62
51359;BME280;37448;51.588;7.248;2023-09-19T00:29:12;100111.56;;;14.70;94.39
51359;BME280;37448;51.588;7.248;2023-09-19T00:31:16;100111.03;;;14.63;92.54
51359;BME280;37448;51.588;7.248;2023-09-19T00:33:19;100119.75;;;14.64;94.20
51359;BME280;37448;51.588;7.248;2023-09-19T00:35:23;100107.63;;;14.61;92.87
51359;BME280;37448;51.588;7.248;2023-09-19T00:37:27;100120.88;;;14.58;92.47
51359;BME280;37448;51.588;7.248;2023-09-19T00:39:28;100120.09;;;14.56;92.97
51359;BME280;37448;51.588;7.248;2023-09-19T00:41:28;100115.72;;;14.57;94.60
51359;BME280;37448;51.588;7.248;2023-09-19T00:43:30;100126.56;;;14.49;92.91
51359;BME280;37448;51.588;7.248;2023-09-19T00:45:37;100127.94;;;14.39;90.81
51359;BME280;37448;51.588;7.248;2023-09-19T00:47:49;100125.22;;;14.40;91.22
51359;BME280;37448;51.588;7.248;2023-09-19T00:49:50;100124.25;;;14.43;93.12
51359;BME280;37448;51.588;7.248;2023-09-19T00:51:50;100125.38;;;14.37;92.50
51359;BME280;37448;51.588;7.248;2023-09-19T00:53:52;100130.63;;;14.37;90.86
51359;BME280;37448;51.588;7.248;2023-09-19T00:55:54;100133.44;;;14.32;91.31
51359;BME280;37448;51.588;7.248;2023-09-19T00:57:56;100123.09;;;14.29;91.05
51359;BME280;37448;51.588;7.248;2023-09-19T00:59:57;100138.97;;;14.26;89.36
51359;BME280;37448;51.588;7.248;2023-09-19T01:01:57;100131.81;;;14.30;91.38
51359;BME280;37448;51.588;7.248;2023-09-19T01:04:00;100137.00;;;14.31;92.56
51359;BME280;37448;51.588;7.248;2023-09-19T01:06:01;100150.25;;;14.28;92.34
51359;BME280;37448;51.588;7.248;2023-09-19T01:08:03;100144.38;;;14.23;91.06
51359;BME280;37448;51.588;7.248;2023-09-19T01:10:06;100148.75;;;14.23;90.19
51359;BME280;37448;51.588;7.248;2023-09-19T01:12:09;100153.03;;;14.25;93.41
51359;BME280;37448;51.588;7.248;2023-09-19T01:14:29;100146.22;;;14.21;91.77
51359;BME280;37448;51.588;7.248;2023-09-19T01:19:07;100157.50;;;14.23;91.82
51359;BME280;37448;51.588;7.248;2023-09-19T01:21:18;100153.19;;;14.22;93.14
51359;BME280;37448;51.588;7.248;2023-09-19T01:24:04;100156.31;;;14.10;90.13
51359;BME280;37448;51.588;7.248;2023-09-19T01:28:31;100161.38;;;14.14;93.09
51359;BME280;37448;51.588;7.248;2023-09-19T01:30:43;100163.31;;;14.11;92.25
51359;BME280;37448;51.588;7.248;2023-09-19T01:32:44;100174.78;;;14.08;92.02
51359;BME280;37448;51.588;7.248;2023-09-19T01:34:51;100164.19;;;14.10;91.34
51359;BME280;37448;51.588;7.248;2023-09-19T01:36:52;100171.19;;;14.11;91.62
51359;BME280;37448;51.588;7.248;2023-09-19T01:38:53;100170.66;;;14.02;89.94
51359;BME280;37448;51.588;7.248;2023-09-19T01:41:03;100182.03;;;14.03;91.02
51359;BME280;37448;51.588;7.248;2023-09-19T01:43:16;100182.06;;;14.01;91.74
51359;BME280;37448;51.588;7.248;2023-09-19T01:45:28;100189.16;;;13.99;91.97
51359;BME280;37448;51.588;7.248;2023-09-19T01:47:35;100185.56;;;14.02;92.83
51359;BME280;37448;51.588;7.248;2023-09-19T01:49:44;100182.25;;;13.97;92.10
51359;BME280;37448;51.588;7.248;2023-09-19T01:52:16;100184.88;;;13.97;92.50
51359;BME280;37448;51.588;7.248;2023-09-19T01:54:31;100189.34;;;13.95;91.97
51359;BME280;37448;51.588;7.248;2023-09-19T01:58:59;100186.06;;;13.89;91.50
51359;BME280;37448;51.588;7.248;2023-09-19T02:01:03;100180.09;;;13.86;92.15
51359;BME280;37448;51.588;7.248;2023-09-19T02:03:06;100182.78;;;13.84;92.58
51359;BME280;37448;51.588;7.248;2023-09-19T02:05:08;100188.03;;;13.84;92.29
51359;BME280;37448;51.588;7.248;2023-09-19T02:07:10;100181.94;;;13.84;92.79
51359;BME280;37448;51.588;7.248;2023-09-19T02:09:10;100191.78;;;13.78;91.29
51359;BME280;37448;51.588;7.248;2023-09-19T02:11:11;100184.69;;;13.81;92.86
51359;BME280;37448;51.588;7.248;2023-09-19T02:13:17;100203.13;;;13.79;92.44
51359;BME280;37448;51.588;7.248;2023-09-19T02:15:19;100197.88;;;13.79;92.58
51359;BME280;37448;51.588;7.248;2023-09-19T02:17:19;100203.06;;;13.81;93.29
51359;BME280;37448;51.588;7.248;2023-09-19T02:19:20;100200.66;;;13.76;92.93
51359;BME280;37448;51.588;7.248;2023-09-19T02:21:21;100203.31;;;13.74;92.49
51359;BME280;37448;51.588;7.248;2023-09-19T02:23:22;100207.66;;;13.75;93.18
51359;BME280;37448;51.588;7.248;2023-09-19T02:25:22;100206.06;;;13.71;92.73
51359;BME280;37448;51.588;7.248;2023-09-19T02:27:22;100209.63;;;13.70;92.51
51359;BME280;37448;51.588;7.248;2023-09-19T02:29:23;100217.75;;;13.64;90.37
51359;BME280;37448;51.588;7.248;2023-09-19T02:31:24;100221.22;;;13.64;90.75
51359;BME280;37448;51.588;7.248;2023-09-19T02:33:25;100217.75;;;13.64;89.70
51359;BME280;37448;51.588;7.248;2023-09-19T02:35:28;100214.25;;;13.63;89.73
51359;BME280;37448;51.588;7.248;2023-09-19T02:37:28;100223.00;;;13.64;92.26
51359;BME280;37448;51.588;7.248;2023-09-19T02:39:29;100224.13;;;13.57;90.73
51359;BME280;37448;51.588;7.248;2023-09-19T02:41:29;100224.13;;;13.57;91.50
51359;BME280;37448;51.588;7.248;2023-09-19T02:43:29;100225.28;;;13.51;88.23
51359;BME280;37448;51.588;7.248;2023-09-19T02:45:30;100221.53;;;13.57;90.92
51359;BME280;37448;51.588;7.248;2023-09-19T02:47:31;100224.28;;;13.54;89.73
51359;BME280;37448;51.588;7.248;2023-09-19T02:49:31;100223.34;;;13.55;89.89
51359;BME280;37448;51.588;7.248;2023-09-19T02:51:33;100226.97;;;13.52;89.22
51359;BME280;37448;51.588;7.248;2023-09-19T02:53:34;100227.81;;;13.53;90.33
51359;BME280;37448;51.588;7.248;2023-09-19T02:55:36;100223.53;;;13.50;89.29
51359;BME280;37448;51.588;7.248;2023-09-19T02:57:39;100236.72;;;13.48;87.81
51359;BME280;37448;51.588;7.248;2023-09-19T02:59:43;100238.38;;;13.51;89.03
51359;BME280;37448;51.588;7.248;2023-09-19T03:01:44;100227.94;;;13.49;88.34
51359;BME280;37448;51.588;7.248;2023-09-19T03:03:48;100235.16;;;13.44;86.92
51359;BME280;37448;51.588;7.248;2023-09-19T03:05:48;100235.06;;;13.46;89.01
51359;BME280;37448;51.588;7.248;2023-09-19T03:07:52;100245.38;;;13.51;91.00
51359;BME280;37448;51.588;7.248;2023-09-19T03:09:54;100247.34;;;13.45;89.55
51359;BME280;37448;51.588;7.248;2023-09-19T03:11:55;100249.19;;;13.43;89.63
51359;BME280;37448;51.588;7.248;2023-09-19T03:13:56;100238.69;;;13.42;87.25
51359;BME280;37448;51.588;7.248;2023-09-19T03:15:56;100248.31;;;13.43;88.87
51359;BME280;37448;51.588;7.248;2023-09-19T03:18:00;100247.44;;;13.42;88.49
51359;BME280;37448;51.588;7.248;2023-09-19T03:20:02;100241.31;;;13.43;88.31
51359;BME280;37448;51.588;7.248;2023-09-19T03:22:02;100249.19;;;13.43;87.93
51359;BME280;37448;51.588;7.248;2023-09-19T03:24:05;100248.34;;;13.41;87.88
51359;BME280;37448;51.588;7.248;2023-09-19T03:26:06;100255.31;;;13.42;88.66
51359;BME280;37448;51.588;7.248;2023-09-19T03:28:07;100249.09;;;13.45;89.20
51359;BME280;37448;51.588;7.248;2023-09-19T03:30:08;100261.38;;;13.44;88.61
51359;BME280;37448;51.588;7.248;2023-09-19T03:32:09;100248.31;;;13.43;89.09
51359;BME280;37448;51.588;7.248;2023-09-19T03:34:10;100256.22;;;13.41;88.72
51359;BME280;37448;51.588;7.248;2023-09-19T03:36:11;100255.53;;;13.36;87.23
51359;BME280;37448;51.588;7.248;2023-09-19T03:38:14;100256.56;;;13.32;87.76
51359;BME280;37448;51.588;7.248;2023-09-19T03:40:14;100256.44;;;13.35;89.60
51359;BME280;37448;51.588;7.248;2023-09-19T03:42:16;100254.59;;;13.37;89.51
51359;BME280;37448;51.588;7.248;2023-09-19T03:44:16;100255.53;;;13.36;89.56
51359;BME280;37448;51.588;7.248;2023-09-19T03:46:17;100261.69;;;13.35;89.83
51359;BME280;37448;51.588;7.248;2023-09-19T03:48:18;100257.56;;;13.29;88.21
51359;BME280;37448;51.588;7.248;2023-09-19T03:50:19;100258.50;;;13.27;88.29
51359;BME280;37448;51.588;7.248;2023-09-19T03:52:20;100256.06;;;13.22;89.12
51359;BME280;37448;51.588;7.248;2023-09-19T03:54:20;100258.75;;;13.20;88.40
51359;BME280;37448;51.588;7.248;2023-09-19T03:56:21;100256.19;;;13.19;89.42
51359;BME280;37448;51.588;7.248;2023-09-19T03:58:21;100252.84;;;13.15;88.53
51359;BME280;37448;51.588;7.248;2023-09-19T04:00:22;100261.66;;;13.13;86.81
51359;BME280;37448;51.588;7.248;2023-09-19T04:02:24;100261.66;;;13.13;88.34
51359;BME280;37448;51.588;7.248;2023-09-19T04:04:25;100256.44;;;13.13;86.90
51359;BME280;37448;51.588;7.248;2023-09-19T04:06:25;100262.50;;;13.13;88.58
51359;BME280;37448;51.588;7.248;2023-09-19T04:08:27;100256.53;;;13.10;87.50
51359;BME280;37448;51.588;7.248;2023-09-19T04:10:28;100246.00;;;13.11;88.87
51359;BME280;37448;51.588;7.248;2023-09-19T04:12:28;100252.16;;;13.10;89.37
51359;BME280;37448;51.588;7.248;2023-09-19T04:14:29;100260.91;;;13.09;89.80
51359;BME280;37448;51.588;7.248;2023-09-19T04:16:29;100253.28;;;13.03;87.26
51359;BME280;37448;51.588;7.248;2023-09-19T04:18:30;100251.44;;;13.06;89.90
51359;BME280;37448;51.588;7.248;2023-09-19T04:20:34;100255.91;;;13.03;87.33
51359;BME280;37448;51.588;7.248;2023-09-19T04:22:34;100259.34;;;13.05;87.77
51359;BME280;37448;51.588;7.248;2023-09-19T04:24:35;100259.41;;;13.03;87.48
51359;BME280;37448;51.588;7.248;2023-09-19T04:26:35;100255.09;;;13.02;87.96
51359;BME280;37448;51.588;7.248;2023-09-19T04:28:36;100254.09;;;13.05;87.68
51359;BME280;37448;51.588;7.248;2023-09-19T04:30:38;100255.09;;;13.02;87.47
51359;BME280;37448;51.588;7.248;2023-09-19T04:32:41;100256.88;;;13.00;87.75
51359;BME280;37448;51.588;7.248;2023-09-19T04:34:42;100260.50;;;12.98;85.97
51359;BME280;37448;51.588;7.248;2023-09-19T04:36:43;100263.75;;;13.04;86.93
51359;BME280;37448;51.588;7.248;2023-09-19T04:38:43;100271.53;;;13.06;85.90
51359;BME280;37448;51.588;7.248;2023-09-19T04:40:44;100260.19;;;13.05;87.90
51359;BME280;37448;51.588;7.248;2023-09-19T04:42:44;100262.72;;;13.09;88.22
51359;BME280;37448;51.588;7.248;2023-09-19T04:44:46;100266.28;;;13.06;87.62
51359;BME280;37448;51.588;7.248;2023-09-19T04:46:49;100267.19;;;13.05;88.73
51359;BME280;37448;51.588;7.248;2023-09-19T04:48:49;100265.59;;;13.01;87.51
51359;BME280;37448;51.588;7.248;2023-09-19T04:50:50;100262.06;;;13.02;87.99
51359;BME280;37448;51.588;7.248;2023-09-19T04:52:51;100261.97;;;13.05;87.68
51359;BME280;37448;51.588;7.248;2023-09-19T04:54:51;100264.66;;;13.03;87.96
51359;BME280;37448;51.588;7.248;2023-09-19T04:56:51;100270.69;;;13.05;87.62
51359;BME280;37448;51.588;7.248;2023-09-19T04:58:52;100274.94;;;13.08;89.08
51359;BME280;37448;51.588;7.248;2023-09-19T05:00:52;100279.34;;;13.07;89.33
51359;BME280;37448;51.588;7.248;2023-09-19T05:02:55;100278.59;;;13.04;88.11
51359;BME280;37448;51.588;7.248;2023-09-19T05:04:59;100281.19;;;13.05;87.77
51359;BME280;37448;51.588;7.248;2023-09-19T05:07:00;100294.31;;;13.04;88.46
51359;BME280;37448;51.588;7.248;2023-09-19T05:09:03;100296.09;;;13.03;88.46
51359;BME280;37448;51.588;7.248;2023-09-19T05:11:05;100300.59;;;13.00;85.56
51359;BME280;37448;51.588;7.248;2023-09-19T05:13:06;100310.06;;;13.04;88.71
51359;BME280;37448;51.588;7.248;2023-09-19T05:15:08;100309.28;;;13.00;87.79
51359;BME280;37448;51.588;7.248;2023-09-19T05:17:08;100306.78;;;12.97;86.50
51359;BME280;37448;51.588;7.248;2023-09-19T05:19:08;100320.59;;;13.02;90.35
51359;BME280;37448;51.588;7.248;2023-09-19T05:21:11;100329.44;;;13.00;88.75
51359;BME280;37448;51.588;7.248;2023-09-19T05:23:12;100327.59;;;13.02;87.05
51359;BME280;37448;51.588;7.248;2023-09-19T05:25:12;100320.66;;;13.01;87.56
51359;BME280;37448;51.588;7.248;2023-09-19T05:27:19;100325.84;;;13.02;85.89
51359;BME280;37448;51.588;7.248;2023-09-19T05:29:21;100329.34;;;13.01;87.40
51359;BME280;37448;51.588;7.248;2023-09-19T05:31:21;100336.22;;;13.05;88.71
51359;BME280;37448;51.588;7.248;2023-09-19T05:33:23;100342.25;;;13.07;89.06
51359;BME280;37448;51.588;7.248;2023-09-19T05:35:24;100339.53;;;13.11;88.84
51359;BME280;37448;51.588;7.248;2023-09-19T05:37:26;100342.97;;;13.11;88.99
51359;BME280;37448;51.588;7.248;2023-09-19T05:39:26;100346.41;;;13.13;88.98
51359;BME280;37448;51.588;7.248;2023-09-19T05:41:27;100348.97;;;13.15;89.05
51359;BME280;37448;51.588;7.248;2023-09-19T05:43:27;100355.13;;;13.14;87.20
51359;BME280;37448;51.588;7.248;2023-09-19T05:45:27;100354.22;;;13.15;86.91
51359;BME280;37448;51.588;7.248;2023-09-19T05:47:28;100363.75;;;13.17;86.94
51359;BME280;37448;51.588;7.248;2023-09-19T05:49:29;100354.84;;;13.21;88.23
51359;BME280;37448;51.588;7.248;2023-09-19T05:51:29;100353.97;;;13.21;86.15
51359;BME280;37448;51.588;7.248;2023-09-19T05:53:29;100364.34;;;13.24;89.01
51359;BME280;37448;51.588;7.248;2023-09-19T05:55:30;100366.94;;;13.26;86.62
51359;BME280;37448;51.588;7.248;2023-09-19T05:57:31;100361.56;;;13.29;87.86
51359;BME280;37448;51.588;7.248;2023-09-19T05:59:31;100363.97;;;13.35;89.34
51359;BME280;37448;51.588;7.248;2023-09-19T06:01:33;100367.56;;;13.32;87.84
51359;BME280;37448;51.588;7.248;2023-09-19T06:03:34;100362.09;;;13.39;87.59
51359;BME280;37448;51.588;7.248;2023-09-19T06:05:35;100363.72;;;13.43;88.21
51359;BME280;37448;51.588;7.248;2023-09-19T06:07:37;100362.63;;;13.48;88.20
51359;BME280;37448;51.588;7.248;2023-09-19T06:09:37;100362.66;;;13.47;87.25
51359;BME280;37448;51.588;7.248;2023-09-19T06:11:38;100360.69;;;13.54;88.55
51359;BME280;37448;51.588;7.248;2023-09-19T06:13:39;100353.72;;;13.53;85.95
51359;BME280;37448;51.588;7.248;2023-09-19T06:15:39;100352.00;;;13.52;85.24
51359;BME280;37448;51.588;7.248;2023-09-19T06:17:47;100348.34;;;13.56;85.16
51359;BME280;37448;51.588;7.248;2023-09-19T06:19:47;100341.41;;;13.55;84.66
51359;BME280;37448;51.588;7.248;2023-09-19T06:21:50;100348.34;;;13.56;85.01
51359;BME280;37448;51.588;7.248;2023-09-19T06:23:53;100346.41;;;13.61;85.74
51359;BME280;37448;51.588;7.248;2023-09-19T06:25:53;100343.78;;;13.61;86.04
51359;BME280;37448;51.588;7.248;2023-09-19T06:27:54;100359.31;;;13.67;86.23
51359;BME280;37448;51.588;7.248;2023-09-19T06:29:56;100359.22;;;13.69;85.70
51359;BME280;37448;51.588;7.248;2023-09-19T06:31:57;100353.13;;;13.68;83.01
51359;BME280;37448;51.588;7.248;2023-09-19T06:33:57;100370.59;;;13.69;83.03
51359;BME280;37448;51.588;7.248;2023-09-19T06:35:58;100367.84;;;13.72;83.01
51359;BME280;37448;51.588;7.248;2023-09-19T06:38:04;100364.19;;;13.76;85.73
51359;BME280;37448;51.588;7.248;2023-09-19T06:40:14;100370.09;;;13.82;84.99
51359;BME280;37448;51.588;7.248;2023-09-19T06:42:15;100363.00;;;13.84;84.98
51359;BME280;37448;51.588;7.248;2023-09-19T06:44:17;100364.63;;;13.88;85.15
51359;BME280;37448;51.588;7.248;2023-09-19T06:46:17;100357.53;;;13.90;84.94
51359;BME280;37448;51.588;7.248;2023-09-19T06:48:17;100368.03;;;13.90;83.99
51359;BME280;37448;51.588;7.248;2023-09-19T06:50:19;100364.38;;;13.94;85.21
51359;BME280;37448;51.588;7.248;2023-09-19T06:52:20;100366.22;;;13.92;82.20
51359;BME280;37448;51.588;7.248;2023-09-19T06:54:21;100369.75;;;13.91;81.47
51359;BME280;37448;51.588;7.248;2023-09-19T06:56:21;100368.75;;;13.93;82.27
51359;BME280;37448;51.588;7.248;2023-09-19T06:58:24;100362.53;;;13.96;84.18
51359;BME280;37448;51.588;7.248;2023-09-19T07:00:25;100379.81;;;14.02;83.26
51359;BME280;37448;51.588;7.248;2023-09-19T07:02:25;100373.56;;;14.04;84.21
51359;BME280;37448;51.588;7.248;2023-09-19T07:04:26;100378.91;;;14.03;83.29
51359;BME280;37448;51.588;7.248;2023-09-19T07:06:26;100382.31;;;14.05;83.21
51359;BME280;37448;51.588;7.248;2023-09-19T07:08:27;100384.75;;;14.10;83.95
51359;BME280;37448;51.588;7.248;2023-09-19T07:10:28;100384.66;;;14.13;82.37
51359;BME280;37448;51.588;7.248;2023-09-19T07:12:29;100379.97;;;14.19;83.18
51359;BME280;37448;51.588;7.248;2023-09-19T07:14:29;100379.13;;;14.19;81.62
51359;BME280;37448;51.588;7.248;2023-09-19T07:16:30;100383.22;;;14.26;83.87
51359;BME280;37448;51.588;7.248;2023-09-19T07:18:31;100387.41;;;14.30;82.84
51359;BME280;37448;51.588;7.248;2023-09-19T07:20:32;100395.13;;;14.35;82.63
51359;BME280;37448;51.588;7.248;2023-09-19T07:22:32;100403.88;;;14.35;80.58
51359;BME280;37448;51.588;7.248;2023-09-19T07:24:33;100401.03;;;14.40;80.67
51359;BME280;37448;51.588;7.248;2023-09-19T07:26:33;100405.06;;;14.49;81.97
51359;BME280;37448;51.588;7.248;2023-09-19T07:28:34;100410.97;;;14.54;82.77
51359;BME280;37448;51.588;7.248;2023-09-19T07:30:38;100401.00;;;14.62;82.26
51359;BME280;37448;51.588;7.248;2023-09-19T07:32:39;100400.13;;;14.62;81.64
51359;BME280;37448;51.588;7.248;2023-09-19T07:34:41;100408.63;;;14.69;82.97
51359;BME280;37448;51.588;7.248;2023-09-19T07:36:41;100403.25;;;14.72;82.15
51359;BME280;37448;51.588;7.248;2023-09-19T07:38:42;100406.69;;;14.74;81.71
51359;BME280;37448;51.588;7.248;2023-09-19T07:40:43;100394.31;;;14.76;80.46
51359;BME280;37448;51.588;7.248;2023-09-19T07:42:44;100397.72;;;14.78;79.88
51359;BME280;37448;51.588;7.248;2023-09-19T07:44:47;100385.28;;;14.83;80.69
51359;BME280;37448;51.588;7.248;2023-09-19T07:46:49;100395.38;;;14.92;82.30
51359;BME280;37448;51.588;7.248;2023-09-19T07:48:51;100398.47;;;15.02;83.68
51359;BME280;37448;51.588;7.248;2023-09-19T07:50:51;100405.47;;;15.02;80.77
51359;BME280;37448;51.588;7.248;2023-09-19T07:52:52;100397.25;;;15.10;80.79
51359;BME280;37448;51.588;7.248;2023-09-19T07:54:53;100410.34;;;15.11;78.96
51359;BME280;37448;51.588;7.248;2023-09-19T07:56:53;100399.56;;;15.17;80.40
51359;BME280;37448;51.588;7.248;2023-09-19T07:58:54;100403.47;;;15.28;82.89
51359;BME280;37448;51.588;7.248;2023-09-19T08:00:54;100420.50;;;15.19;77.90
51359;BME280;37448;51.588;7.248;2023-09-19T08:02:54;100408.03;;;15.24;78.87
51359;BME280;37448;51.588;7.248;2023-09-19T08:04:55;100407.53;;;15.35;80.87
51359;BME280;37448;51.588;7.248;2023-09-19T08:06:55;100414.53;;;15.36;79.61
51359;BME280;37448;51.588;7.248;2023-09-19T08:08:58;100426.41;;;15.45;81.27
51359;BME280;37448;51.588;7.248;2023-09-19T08:11:01;100420.56;;;15.38;79.20
51359;BME280;37448;51.588;7.248;2023-09-19T08:13:01;100421.34;;;15.40;79.66
51359;BME280;37448;51.588;7.248;2023-09-19T08:15:03;100424.91;;;15.39;78.74
51359;BME280;37448;51.588;7.248;2023-09-19T08:17:03;100412.25;;;15.47;80.17
51359;BME280;37448;51.588;7.248;2023-09-19T08:19:10;100423.97;;;15.40;78.04
51359;BME280;37448;51.588;7.248;2023-09-19T08:21:11;100430.00;;;15.42;79.24
51359;BME280;37448;51.588;7.248;2023-09-19T08:23:12;100436.13;;;15.43;79.81
51359;BME280;37448;51.588;7.248;2023-09-19T08:25:13;100437.91;;;15.42;79.37
51359;BME280;37448;51.588;7.248;2023-09-19T08:27:13;100445.53;;;15.48;79.07
51359;BME280;37448;51.588;7.248;2023-09-19T08:29:14;100450.94;;;15.45;77.07
51359;BME280;37448;51.588;7.248;2023-09-19T08:31:14;100440.41;;;15.45;79.01
51359;BME280;37448;51.588;7.248;2023-09-19T08:33:17;100438.69;;;15.44;79.22
51359;BME280;37448;51.588;7.248;2023-09-19T08:35:17;100434.06;;;15.49;79.32
51359;BME280;37448;51.588;7.248;2023-09-19T08:37:17;100441.56;;;15.59;80.35
51359;BME280;37448;51.588;7.248;2023-09-19T08:39:19;100452.88;;;15.61;79.41
51359;BME280;37448;51.588;7.248;2023-09-19T08:41:19;100441.72;;;15.56;77.12
51359;BME280;37448;51.588;7.248;2023-09-19T08:43:21;100454.28;;;15.68;80.50
51359;BME280;37448;51.588;7.248;2023-09-19T08:45:25;100444.53;;;15.70;76.97
51359;BME280;37448;51.588;7.248;2023-09-19T08:47:38;100452.88;;;15.80;77.06
51359;BME280;37448;51.588;7.248;2023-09-19T08:51:54;100450.69;;;15.90;76.30
51359;BME280;37448;51.588;7.248;2023-09-19T08:56:08;100454.81;;;16.15;80.80
51359;BME280;37448;51.588;7.248;2023-09-19T08:58:10;100454.50;;;16.21;79.22
51359;BME280;37448;51.588;7.248;2023-09-19T09:00:13;100442.88;;;16.25;75.57
51359;BME280;37448;51.588;7.248;2023-09-19T09:02:15;100449.59;;;16.32;77.55
51359;BME280;37448;51.588;7.248;2023-09-19T09:04:17;100449.28;;;16.39;75.24
51359;BME280;37448;51.588;7.248;2023-09-19T09:06:19;100448.50;;;16.36;75.12
51359;BME280;37448;51.588;7.248;2023-09-19T09:08:20;100446.50;;;16.42;75.60
51359;BME280;37448;51.588;7.248;2023-09-19T09:10:22;100452.56;;;16.61;80.42
51359;BME280;37448;51.588;7.248;2023-09-19T09:12:23;100449.47;;;16.53;75.81
51359;BME280;37448;51.588;7.248;2023-09-19T09:14:24;100445.88;;;16.72;79.34
51359;BME280;37448;51.588;7.248;2023-09-19T09:16:24;100459.22;;;16.69;75.04
51359;BME280;37448;51.588;7.248;2023-09-19T09:18:26;100449.84;;;16.63;74.20
51359;BME280;37448;51.588;7.248;2023-09-19T09:20:26;100444.34;;;16.68;74.03
51359;BME280;37448;51.588;7.248;2023-09-19T09:22:27;100438.31;;;16.83;76.71
51359;BME280;37448;51.588;7.248;2023-09-19T09:24:31;100429.13;;;16.90;74.37
51359;BME280;37448;51.588;7.248;2023-09-19T09:28:38;100437.66;;;17.13;71.57
51359;BME280;37448;51.588;7.248;2023-09-19T09:30:44;100427.34;;;17.42;77.89
51359;BME280;37448;51.588;7.248;2023-09-19T09:32:44;100441.16;;;17.47;71.14
51359;BME280;37448;51.588;7.248;2023-09-19T09:34:47;100433.47;;;17.76;75.98
51359;BME280;37448;51.588;7.248;2023-09-19T09:36:48;100425.00;;;17.70;70.76
51359;BME280;37448;51.588;7.248;2023-09-19T09:38:49;100428.94;;;17.78;74.78
51359;BME280;37448;51.588;7.248;2023-09-19T09:40:51;100429.69;;;17.97;75.99
51359;BME280;37448;51.588;7.248;2023-09-19T09:43:01;100422.31;;;17.87;67.24
51359;BME280;37448;51.588;7.248;2023-09-19T09:45:21;100422.41;;;18.02;68.96
51359;BME280;37448;51.588;7.248;2023-09-19T09:49:50;100425.00;;;18.34;69.08
51359;BME280;37448;51.588;7.248;2023-09-19T09:52:04;100427.16;;;18.27;67.17
51359;BME280;37448;51.588;7.248;2023-09-19T09:54:13;100431.28;;;18.47;68.23
51359;BME280;37448;51.588;7.248;2023-09-19T09:56:15;100437.28;;;18.65;69.61
51359;BME280;37448;51.588;7.248;2023-09-19T09:58:16;100424.44;;;18.59;64.51
51359;BME280;37448;51.588;7.248;2023-09-19T10:00:23;100427.31;;;18.71;66.59
51359;BME280;37448;51.588;7.248;2023-09-19T10:02:27;100422.09;;;19.00;67.03
51359;BME280;37448;51.588;7.248;2023-09-19T10:04:36;100426.88;;;18.93;63.03
51359;BME280;37448;51.588;7.248;2023-09-19T10:06:44;100419.06;;;19.06;63.30
51359;BME280;37448;51.588;7.248;2023-09-19T10:09:07;100416.63;;;19.03;64.54
51359;BME280;37448;51.588;7.248;2023-09-19T10:11:17;100432.22;;;18.77;65.65
51359;BME280;37448;51.588;7.248;2023-09-19T10:13:20;100437.31;;;18.80;63.65
51359;BME280;37448;51.588;7.248;2023-09-19T10:15:26;100417.31;;;18.90;64.45
51359;BME280;37448;51.588;7.248;2023-09-19T10:17:29;100396.31;;;18.87;62.09
51359;BME280;37448;51.588;7.248;2023-09-19T10:19:44;100423.03;;;18.99;62.54
51359;BME280;37448;51.588;7.248;2023-09-19T10:21:47;100424.84;;;19.13;65.50
51359;BME280;37448;51.588;7.248;2023-09-19T10:23:49;100414.81;;;19.18;63.17
51359;BME280;37448;51.588;7.248;2023-09-19T10:25:52;100420.78;;;19.21;59.87
51359;BME280;37448;51.588;7.248;2023-09-19T10:27:54;100417.94;;;19.25;63.69
51359;BME280;37448;51.588;7.248;2023-09-19T10:29:57;100411.13;;;19.35;63.18
51359;BME280;37448;51.588;7.248;2023-09-19T10:32:00;100404.88;;;19.36;62.76
51359;BME280;37448;51.588;7.248;2023-09-19T10:34:05;100406.41;;;19.11;59.94
51359;BME280;37448;51.588;7.248;2023-09-19T10:36:06;100407.66;;;19.05;62.91
51359;BME280;37448;51.588;7.248;2023-09-19T10:38:10;100407.41;;;18.94;63.42
51359;BME280;37448;51.588;7.248;2023-09-19T10:40:11;100409.66;;;18.86;63.35
51359;BME280;37448;51.588;7.248;2023-09-19T10:42:17;100404.91;;;18.76;63.83
51359;BME280;37448;51.588;7.248;2023-09-19T10:44:25;100399.88;;;18.57;65.63
51359;BME280;37448;51.588;7.248;2023-09-19T10:46:25;100399.88;;;18.57;65.03
51359;BME280;37448;51.588;7.248;2023-09-19T10:48:26;100406.09;;;18.56;63.43
51359;BME280;37448;51.588;7.248;2023-09-19T10:50:36;100413.16;;;18.56;66.51
51359;BME280;37448;51.588;7.248;2023-09-19T10:52:42;100405.91;;;18.45;63.67
51359;BME280;37448;51.588;7.248;2023-09-19T10:54:46;100408.66;;;18.27;61.88
51359;BME280;37448;51.588;7.248;2023-09-19T10:56:52;100390.66;;;18.18;62.48